createdAt,value
2022-08-08T00:00:56.089Z,1.35
2022-08-08T00:02:42.927Z,1.33
2022-08-08T00:06:03.496Z,1.30
2022-08-08T00:08:59.605Z,1.00
2022-08-08T00:12:07.499Z,1.27
2022-08-08T00:15:00.167Z,1.15
2022-08-08T00:17:48.237Z,1.15
2022-08-08T00:20:28.843Z,1.35
2022-08-08T00:23:14.986Z,1.30
2022-08-08T00:25:50.990Z,1.40
2022-08-08T00:28:35.803Z,1.30
2022-08-08T00:32:33.006Z,1.65
2022-08-08T00:34:29.797Z,1.30
2022-08-08T00:37:08.148Z,1.40
2022-08-08T00:41:07.774Z,1.33
2022-08-08T00:43:26.145Z,1.63
2022-08-08T00:46:22.413Z,1.70
2022-08-08T00:49:04.236Z,1.70
2022-08-08T00:52:19.900Z,1.40
2022-08-08T00:55:16.679Z,1.48
2022-08-08T00:58:30.666Z,1.30
2022-08-08T01:01:39.154Z,1.48
2022-08-08T01:04:29.572Z,1.40
2022-08-08T01:07:05.734Z,1.60
2022-08-08T01:10:00.191Z,1.50
2022-08-08T01:12:43.116Z,1.40
2022-08-08T01:15:47.073Z,1.52
2022-08-08T01:18:50.533Z,1.60
2022-08-08T01:21:34.549Z,1.63
2022-08-08T01:24:38.665Z,1.70
2022-08-08T01:27:24.078Z,1.67
2022-08-08T01:30:03.409Z,1.38
2022-08-08T01:33:01.041Z,2.00
2022-08-08T01:36:00.879Z,1.52
2022-08-08T01:38:42.998Z,1.90
2022-08-08T01:41:21.769Z,1.70
2022-08-08T01:44:02.701Z,1.50
2022-08-08T01:46:52.804Z,1.88
2022-08-08T01:49:47.573Z,1.70
2022-08-08T01:54:07.427Z,1.70
2022-08-08T01:56:28.325Z,1.70
2022-08-08T01:59:21.958Z,1.73
2022-08-08T02:02:02.918Z,1.90
2022-08-08T02:05:13.033Z,1.60
2022-08-08T02:08:04.283Z,1.70
2022-08-08T02:11:00.702Z,1.90
2022-08-08T02:13:53.785Z,1.85
2022-08-08T02:16:58.391Z,1.90
2022-08-08T02:19:57.142Z,2.13
2022-08-08T02:22:52.983Z,1.77
2022-08-08T02:25:32.936Z,1.80
2022-08-08T02:31:59.587Z,1.83
2022-08-08T02:34:34.701Z,1.73
2022-08-08T02:37:53.019Z,1.65
2022-08-08T02:40:16.491Z,1.90
2022-08-08T02:44:37.408Z,1.90
2022-08-08T02:46:14.986Z,1.60
2022-08-08T02:49:48.028Z,1.98
2022-08-08T02:52:38.657Z,2.17
2022-08-08T02:55:37.295Z,1.90
2022-08-08T02:58:19.517Z,2.15
2022-08-08T03:01:02.106Z,2.60
2022-08-08T03:05:01.115Z,1.95
2022-08-08T03:06:46.293Z,2.00
2022-08-08T03:09:17.530Z,2.22
2022-08-08T03:12:36.610Z,2.00
2022-08-08T03:15:59.451Z,1.80
2022-08-08T03:18:45.041Z,1.95
2022-08-08T03:21:14.790Z,2.03
2022-08-08T03:23:59.408Z,2.10
2022-08-08T03:26:41.938Z,1.88
2022-08-08T03:29:20.641Z,1.95
2022-08-08T03:32:12.604Z,2.15
2022-08-08T03:34:41.338Z,1.85
2022-08-08T03:37:59.037Z,2.47
2022-08-08T03:40:03.532Z,2.10
2022-08-08T03:42:31.627Z,2.03
2022-08-08T03:44:59.003Z,1.83
2022-08-08T03:47:39.424Z,2.10
2022-08-08T03:50:19.702Z,2.00
2022-08-08T03:52:47.442Z,2.50
2022-08-08T03:55:56.476Z,2.28
2022-08-08T03:58:31.986Z,2.13
2022-08-08T04:01:20.919Z,2.10
2022-08-08T04:03:59.579Z,1.92
2022-08-08T04:06:29.287Z,2.15
2022-08-08T04:08:58.071Z,2.25
2022-08-08T04:11:25.560Z,2.22
2022-08-08T04:14:03.841Z,2.00
2022-08-08T04:16:41.001Z,1.98
2022-08-08T04:19:25.160Z,2.03
2022-08-08T04:21:54.364Z,2.13
2022-08-08T04:24:29.597Z,2.25
2022-08-08T04:26:59.402Z,2.15
2022-08-08T04:29:27.848Z,2.05
2022-08-08T04:32:06.934Z,2.17
2022-08-08T04:34:55.404Z,2.40
2022-08-08T04:37:31.508Z,2.45
2022-08-08T04:40:06.510Z,3.00
2022-08-08T04:42:34.903Z,2.05
2022-08-08T04:45:04.985Z,2.28
2022-08-08T04:47:32.167Z,1.90
2022-08-08T04:52:34.199Z,2.17
2022-08-08T04:55:04.373Z,2.50
2022-08-08T04:57:34.181Z,2.20
2022-08-08T05:00:02.344Z,2.30
2022-08-08T05:02:31.193Z,2.05
2022-08-08T05:04:59.832Z,2.30
2022-08-08T05:07:38.113Z,2.28
2022-08-08T05:10:12.892Z,2.35
2022-08-08T05:12:53.395Z,1.90
2022-08-08T05:16:36.367Z,2.20
2022-08-08T05:18:14.364Z,2.00
2022-08-08T05:20:50.317Z,2.05
2022-08-08T05:23:19.728Z,2.22
2022-08-08T05:25:48.966Z,2.13
2022-08-08T05:28:48.301Z,2.50
2022-08-08T05:31:08.470Z,1.98
2022-08-08T05:33:49.414Z,2.42
2022-08-08T05:36:24.982Z,2.33
2022-08-08T05:38:53.352Z,2.22
2022-08-08T05:41:25.486Z,2.38
2022-08-08T05:44:10.249Z,2.80
2022-08-08T05:46:39.403Z,2.03
2022-08-08T05:49:11.375Z,2.42
2022-08-08T05:51:48.910Z,2.17
2022-08-08T05:54:32.309Z,2.28
2022-08-08T05:57:57.584Z,2.50
2022-08-08T06:00:19.729Z,2.60
2022-08-08T06:03:17.132Z,2.70
2022-08-08T06:06:06.527Z,2.40
2022-08-08T06:09:00.248Z,2.58
2022-08-08T06:11:45.988Z,2.30
2022-08-08T06:14:18.003Z,2.13
2022-08-08T06:19:16.583Z,2.50
2022-08-08T06:21:57.038Z,2.28
2022-08-08T06:24:30.777Z,2.25
2022-08-08T06:27:05.412Z,2.50
2022-08-08T06:29:56.905Z,2.35
2022-08-08T06:32:31.250Z,2.20
2022-08-08T06:36:03.798Z,2.33
2022-08-08T06:37:57.553Z,2.28
2022-08-08T06:40:27.041Z,2.15
2022-08-08T06:43:09.567Z,2.50
2022-08-08T06:45:40.332Z,2.28
2022-08-08T06:48:08.592Z,2.30
2022-08-08T06:50:38.690Z,2.50
2022-08-08T06:53:09.671Z,2.13
2022-08-08T06:55:42.193Z,2.90
2022-08-08T06:58:10.216Z,2.35
2022-08-08T07:00:40.917Z,2.63
2022-08-08T07:03:51.718Z,2.10
2022-08-08T07:06:03.280Z,2.45
2022-08-08T07:08:36.405Z,2.85
2022-08-08T07:11:05.414Z,2.75
2022-08-08T07:14:00.634Z,2.60
2022-08-08T07:16:50.096Z,2.75
2022-08-08T07:19:38.494Z,2.60
2022-08-08T07:22:12.198Z,2.65
2022-08-08T07:24:46.559Z,2.88
2022-08-08T07:27:16.672Z,2.40
2022-08-08T07:30:02.634Z,2.50
2022-08-08T07:32:32.874Z,2.35
2022-08-08T07:35:06.225Z,2.30
2022-08-08T07:38:05.110Z,2.65
2022-08-08T07:40:29.432Z,2.50
2022-08-08T07:43:01.191Z,2.40
2022-08-08T07:45:34.756Z,2.70
2022-08-08T07:48:14.989Z,2.42
2022-08-08T07:50:44.380Z,2.63
2022-08-08T07:54:01.459Z,2.40
2022-08-08T07:56:37.083Z,2.53
2022-08-08T07:59:14.418Z,2.38
2022-08-08T08:02:36.848Z,2.55
2022-08-08T08:04:44.123Z,2.88
2022-08-08T08:07:16.097Z,2.88
2022-08-08T08:09:43.142Z,2.75
2022-08-08T08:12:26.433Z,2.42
2022-08-08T08:15:07.067Z,2.70
2022-08-08T08:17:48.561Z,2.47
2022-08-08T08:20:18.457Z,2.75
2022-08-08T08:22:47.407Z,2.45
2022-08-08T08:25:16.704Z,2.63
2022-08-08T08:27:46.861Z,2.80
2022-08-08T08:30:14.854Z,2.60
2022-08-08T08:32:51.253Z,2.35
2022-08-08T08:35:21.382Z,2.90
2022-08-08T08:38:16.174Z,7.18
2022-08-08T08:40:43.457Z,2.22
2022-08-08T08:43:18.701Z,2.30
2022-08-08T08:45:48.492Z,2.22
2022-08-08T08:48:19.987Z,2.20
2022-08-08T08:50:51.995Z,2.45
2022-08-08T08:53:54.924Z,2.45
2022-08-08T08:56:07.758Z,2.45
2022-08-08T08:58:39.932Z,2.53
2022-08-08T09:01:14.853Z,2.83
2022-08-08T09:03:46.812Z,2.58
2022-08-08T09:06:28.562Z,2.30
2022-08-08T09:09:26.149Z,2.67
2022-08-08T09:12:07.597Z,3.17
2022-08-08T09:14:35.613Z,3.08
2022-08-08T09:17:15.740Z,2.55
2022-08-08T09:21:56.515Z,2.30
2022-08-08T09:22:34.565Z,2.50
2022-08-08T09:25:01.849Z,2.38
2022-08-08T09:27:55.617Z,2.58
2022-08-08T09:30:21.948Z,2.83
2022-08-08T09:33:12.090Z,2.70
2022-08-08T09:35:50.121Z,2.75
2022-08-08T09:38:27.804Z,2.58
2022-08-08T09:41:01.319Z,2.83
2022-08-08T09:44:04.370Z,2.60
2022-08-08T09:46:25.814Z,2.42
2022-08-08T09:49:18.564Z,2.80
2022-08-08T09:52:07.466Z,2.42
2022-08-08T09:54:45.691Z,2.53
2022-08-08T09:57:27.408Z,2.80
2022-08-08T10:00:34.098Z,3.17
2022-08-08T10:02:53.074Z,2.42
2022-08-08T10:05:31.094Z,2.67
2022-08-08T10:08:00.781Z,3.00
2022-08-08T10:10:32.830Z,2.78
2022-08-08T10:13:32.122Z,2.70
2022-08-08T10:16:03.637Z,2.70
2022-08-08T10:18:33.779Z,2.88
2022-08-08T10:21:22.791Z,2.85
2022-08-08T10:23:58.748Z,3.28
2022-08-08T10:26:59.012Z,2.60
2022-08-08T10:29:59.067Z,3.03
2022-08-08T10:32:34.127Z,2.60
2022-08-08T10:36:20.365Z,2.80
2022-08-08T10:38:16.288Z,3.00
2022-08-08T10:40:45.958Z,2.92
2022-08-08T10:43:14.344Z,2.40
2022-08-08T10:45:56.491Z,3.08
2022-08-08T10:48:57.794Z,2.80
2022-08-08T10:51:26.233Z,3.25
2022-08-08T10:53:57.316Z,3.03
2022-08-08T10:56:32.415Z,3.05
2022-08-08T10:59:05.138Z,3.03
2022-08-08T11:01:33.336Z,3.85
2022-08-08T11:04:02.660Z,3.40
2022-08-08T11:06:34.125Z,3.65
2022-08-08T11:09:19.188Z,3.40
2022-08-08T11:12:05.322Z,3.30
2022-08-08T11:14:49.549Z,3.40
2022-08-08T11:17:59.659Z,3.65
2022-08-08T11:20:12.684Z,3.05
2022-08-08T11:22:40.752Z,3.45
2022-08-08T11:25:14.419Z,3.13
2022-08-08T11:27:47.211Z,3.40
2022-08-08T11:30:24.697Z,3.38
2022-08-08T11:32:56.781Z,3.45
2022-08-08T11:35:42.414Z,3.20
2022-08-08T11:38:35.276Z,3.20
2022-08-08T11:41:00.622Z,3.65
2022-08-08T11:43:38.582Z,3.08
2022-08-08T11:48:47.330Z,3.05
2022-08-08T11:51:30.487Z,3.50
2022-08-08T11:54:27.318Z,3.03
2022-08-08T11:56:56.178Z,3.08
2022-08-08T12:00:00.709Z,2.80
2022-08-08T12:02:32.368Z,3.03
2022-08-08T12:05:07.682Z,3.00
2022-08-08T12:07:54.246Z,2.97
2022-08-08T12:10:28.973Z,3.03
2022-08-08T12:13:09.682Z,2.97
2022-08-08T12:18:20.868Z,2.80
2022-08-08T12:20:49.003Z,3.40
2022-08-08T12:23:39.961Z,3.53
2022-08-08T12:26:17.355Z,3.35
2022-08-08T12:28:58.368Z,3.40
2022-08-08T12:34:05.793Z,3.20
2022-08-08T12:36:41.005Z,3.33
2022-08-08T12:39:13.548Z,3.65
2022-08-08T12:41:57.070Z,3.30
2022-08-08T12:44:32.371Z,3.55
2022-08-08T12:47:01.061Z,3.45
2022-08-08T12:49:43.094Z,3.20
2022-08-08T12:52:37.819Z,3.05
2022-08-08T12:55:09.179Z,3.60
2022-08-08T12:57:49.517Z,3.45
2022-08-08T13:00:34.196Z,3.33
2022-08-08T13:03:07.298Z,4.00
2022-08-08T13:06:03.477Z,3.80
2022-08-08T13:08:22.013Z,3.58
2022-08-08T13:10:56.371Z,3.50
2022-08-08T13:13:35.095Z,3.53
2022-08-08T13:16:36.344Z,3.10
2022-08-08T13:19:11.800Z,3.20
2022-08-08T13:21:53.784Z,2.90
2022-08-08T13:24:42.101Z,3.00
2022-08-08T13:27:18.885Z,3.38
2022-08-08T13:30:00.287Z,2.90
2022-08-08T13:32:30.250Z,3.17
2022-08-08T13:34:59.480Z,3.13
2022-08-08T13:37:51.912Z,3.08
2022-08-08T13:40:17.729Z,3.15
2022-08-08T13:42:54.319Z,3.30
2022-08-08T13:45:24.070Z,3.42
2022-08-08T13:48:02.859Z,3.40
2022-08-08T13:50:50.491Z,2.72
2022-08-08T13:53:33.881Z,3.00
2022-08-08T13:56:11.079Z,3.00
2022-08-08T13:58:56.234Z,2.92
2022-08-08T14:01:52.486Z,3.30
2022-08-08T14:04:21.561Z,3.10
2022-08-08T14:06:48.967Z,3.58
2022-08-08T14:09:29.224Z,2.80
2022-08-08T14:12:00.546Z,3.13
2022-08-08T14:14:43.964Z,3.20
2022-08-08T14:17:22.604Z,2.70
2022-08-08T14:20:06.335Z,3.30
2022-08-08T14:22:42.210Z,3.22
2022-08-08T14:25:15.411Z,2.97
2022-08-08T14:28:00.001Z,3.10
2022-08-08T14:30:34.391Z,3.38
2022-08-08T14:33:12.727Z,3.08
2022-08-08T14:38:33.961Z,3.40
2022-08-08T14:40:59.355Z,3.30
2022-08-08T14:44:01.670Z,3.00
2022-08-08T14:46:17.099Z,2.85
2022-08-08T14:48:54.667Z,3.25
2022-08-08T14:51:46.988Z,3.00
2022-08-08T14:54:14.302Z,3.47
2022-08-08T14:56:55.359Z,3.17
2022-08-08T14:59:43.707Z,3.15
2022-08-08T15:02:10.701Z,3.05
2022-08-08T15:04:42.489Z,3.22
2022-08-08T15:07:24.074Z,3.25
2022-08-08T15:09:56.169Z,3.15
2022-08-08T15:12:27.636Z,2.70
2022-08-08T15:14:55.657Z,3.05
2022-08-08T15:17:23.278Z,3.20
2022-08-08T15:19:51.010Z,2.83
2022-08-08T15:22:23.803Z,3.10
2022-08-08T15:24:51.803Z,3.30
2022-08-08T15:28:03.487Z,3.17
2022-08-08T15:30:12.301Z,3.40
2022-08-08T15:32:43.209Z,3.08
2022-08-08T15:35:10.881Z,3.10
2022-08-08T15:37:38.324Z,2.90
2022-08-08T15:40:11.279Z,2.67
2022-08-08T15:42:49.490Z,3.20
2022-08-08T15:45:16.453Z,3.00
2022-08-08T15:48:11.040Z,3.03
2022-08-08T15:50:50.464Z,3.08
2022-08-08T15:53:18.139Z,2.90
2022-08-08T15:55:44.960Z,3.30
2022-08-08T15:58:14.097Z,3.10
2022-08-08T16:00:41.004Z,2.90
2022-08-08T16:03:17.418Z,3.10
2022-08-08T16:05:53.342Z,2.83
2022-08-08T16:08:29.003Z,3.33
2022-08-08T16:13:15.513Z,3.67
2022-08-08T16:13:45.183Z,3.22
2022-08-08T16:16:18.153Z,2.80
2022-08-08T16:18:56.958Z,3.08
2022-08-08T16:21:27.602Z,3.00
2022-08-08T16:23:56.355Z,3.10
2022-08-08T16:26:32.924Z,2.80
2022-08-08T16:29:08.738Z,3.08
2022-08-08T16:31:40.930Z,3.08
2022-08-08T16:34:09.109Z,3.30
2022-08-08T16:36:37.557Z,3.20
2022-08-08T16:39:09.858Z,3.88
2022-08-08T16:41:53.162Z,3.33
2022-08-08T16:44:27.996Z,3.03
2022-08-08T16:47:15.713Z,3.25
2022-08-08T16:49:42.494Z,3.10
2022-08-08T16:55:19.673Z,2.80
2022-08-08T16:55:34.300Z,3.10
2022-08-08T16:58:14.563Z,3.28
2022-08-08T17:00:32.953Z,2.95
2022-08-08T17:03:01.204Z,2.83
2022-08-08T17:05:42.326Z,3.17
2022-08-08T17:08:12.088Z,2.88
2022-08-08T17:10:57.993Z,2.97
2022-08-08T17:13:49.785Z,3.28
2022-08-08T17:16:16.345Z,2.85
2022-08-08T17:18:45.583Z,2.92
2022-08-08T17:21:12.732Z,2.85
2022-08-08T17:24:01.804Z,2.85
2022-08-08T17:26:29.087Z,3.15
2022-08-08T17:28:57.213Z,3.03
2022-08-08T17:31:44.925Z,3.10
2022-08-08T17:34:37.556Z,3.08
2022-08-08T17:37:03.438Z,3.03
2022-08-08T17:40:04.407Z,3.30
2022-08-08T17:42:21.033Z,4.35
2022-08-08T17:44:51.062Z,7.45
2022-08-08T17:47:27.348Z,3.83
2022-08-08T17:50:01.262Z,3.10
2022-08-08T17:52:33.231Z,3.70
2022-08-08T17:55:05.041Z,3.50
2022-08-08T17:57:35.291Z,4.60
2022-08-08T18:00:05.571Z,5.15
2022-08-08T18:02:40.483Z,4.53
2022-08-08T18:05:23.016Z,3.60
2022-08-08T18:08:02.288Z,3.85
2022-08-08T18:10:31.675Z,3.97
2022-08-08T18:12:59.096Z,3.80
2022-08-08T18:15:31.160Z,4.35
2022-08-08T18:18:09.676Z,4.75
2022-08-08T18:20:54.810Z,4.63
2022-08-08T18:23:26.376Z,4.40
2022-08-08T18:25:53.418Z,4.65
2022-08-08T18:28:23.543Z,4.40
2022-08-08T18:30:52.551Z,3.83
2022-08-08T18:33:36.487Z,4.15
2022-08-08T18:36:18.614Z,4.63
2022-08-08T18:38:49.194Z,4.32
2022-08-08T18:41:16.132Z,4.47
2022-08-08T18:43:43.499Z,4.40
2022-08-08T18:46:54.356Z,3.90
2022-08-08T18:48:58.403Z,4.30
2022-08-08T18:51:52.425Z,4.43
2022-08-08T18:54:21.898Z,4.15
2022-08-08T18:56:51.551Z,4.10
2022-08-08T18:59:18.329Z,4.55
2022-08-08T19:02:26.219Z,4.00
2022-08-08T19:04:35.714Z,3.80
2022-08-08T19:07:03.136Z,4.30
2022-08-08T19:09:49.454Z,4.00
2022-08-08T19:12:18.525Z,3.92
2022-08-08T19:14:46.584Z,4.22
2022-08-08T19:17:13.574Z,4.10
2022-08-08T19:20:02.706Z,4.10
2022-08-08T19:22:30.135Z,3.83
2022-08-08T19:25:59.885Z,3.95
2022-08-08T19:27:55.766Z,3.72
2022-08-08T19:30:26.536Z,3.63
2022-08-08T19:32:54.030Z,3.88
2022-08-08T19:35:25.707Z,3.90
2022-08-08T19:38:12.894Z,4.00
2022-08-08T19:40:44.431Z,3.75
2022-08-08T19:43:11.633Z,4.40
2022-08-08T19:45:59.915Z,4.10
2022-08-08T19:48:28.712Z,4.57
2022-08-08T19:50:59.067Z,4.22
2022-08-08T19:53:52.076Z,4.10
2022-08-08T19:56:14.154Z,4.47
2022-08-08T19:58:51.441Z,4.07
2022-08-08T20:01:22.757Z,4.32
2022-08-08T20:04:01.337Z,4.70
2022-08-08T20:06:30.325Z,4.53
2022-08-08T20:08:57.223Z,3.97
2022-08-08T20:11:24.706Z,4.47
2022-08-08T20:14:32.729Z,5.30
2022-08-08T20:16:39.635Z,4.40
2022-08-08T20:19:08.576Z,4.75
2022-08-08T20:21:37.828Z,4.70
2022-08-08T20:24:06.067Z,4.55
2022-08-08T20:26:35.606Z,5.00
2022-08-08T20:29:06.995Z,4.35
2022-08-08T20:31:46.985Z,4.70
2022-08-08T20:34:30.247Z,4.93
2022-08-08T20:37:00.566Z,4.90
2022-08-08T20:39:39.453Z,4.93
2022-08-08T20:42:15.256Z,5.20
2022-08-08T20:44:42.806Z,5.00
2022-08-08T20:47:15.753Z,4.90
2022-08-08T20:49:50.886Z,5.28
2022-08-08T20:52:23.210Z,5.30
2022-08-08T20:54:50.331Z,5.78
2022-08-08T20:57:29.045Z,5.90
2022-08-08T20:59:57.127Z,5.40
2022-08-08T21:02:26.801Z,5.40
2022-08-08T21:05:01.239Z,5.03
2022-08-08T21:07:31.148Z,5.57
2022-08-08T21:10:17.158Z,5.20
2022-08-08T21:12:45.988Z,5.50
2022-08-08T21:15:16.449Z,5.28
2022-08-08T21:18:00.910Z,5.40
2022-08-08T21:20:34.836Z,5.47
2022-08-08T21:23:02.804Z,5.65
2022-08-08T21:25:36.315Z,5.43
2022-08-08T21:28:14.415Z,6.28
2022-08-08T21:30:45.288Z,5.68
2022-08-08T21:33:16.994Z,5.88
2022-08-08T21:36:13.701Z,6.18
2022-08-08T21:38:31.128Z,5.78
2022-08-08T21:40:58.175Z,5.95
2022-08-08T21:43:33.023Z,6.20
2022-08-08T21:48:04.712Z,6.32
2022-08-08T21:48:50.939Z,6.35
2022-08-08T21:51:46.046Z,6.05
2022-08-08T21:54:27.268Z,5.50
2022-08-08T21:56:59.391Z,5.68
2022-08-08T21:59:43.741Z,5.65
2022-08-08T22:02:14.209Z,5.43
2022-08-08T22:04:42.970Z,5.50
2022-08-08T22:07:09.788Z,5.80
2022-08-08T22:09:41.318Z,5.80
2022-08-08T22:12:14.950Z,5.43
2022-08-08T22:14:49.872Z,5.63
2022-08-08T22:17:18.342Z,5.40
2022-08-08T22:20:11.066Z,5.97
2022-08-08T22:22:38.083Z,4.95
2022-08-08T22:25:12.457Z,5.25
2022-08-08T22:28:04.141Z,5.70
2022-08-08T22:30:40.687Z,5.72
2022-08-08T22:34:10.796Z,4.90
2022-08-08T22:36:04.697Z,5.63
2022-08-08T22:38:39.495Z,4.57
2022-08-08T22:41:21.194Z,5.03
2022-08-08T22:44:02.805Z,5.07
2022-08-08T22:46:39.001Z,5.70
2022-08-08T22:49:09.289Z,4.80
2022-08-08T22:51:42.543Z,4.20
2022-08-08T22:54:30.073Z,4.90
2022-08-08T22:56:59.947Z,5.15
2022-08-08T22:59:27.343Z,4.93
2022-08-08T23:02:12.585Z,4.93
2022-08-08T23:04:55.865Z,4.55
2022-08-08T23:07:51.494Z,5.07
2022-08-08T23:10:19.825Z,4.78
2022-08-08T23:12:51.609Z,4.80
2022-08-08T23:16:39.539Z,4.57
2022-08-08T23:18:11.600Z,4.80
2022-08-08T23:23:11.698Z,4.43
2022-08-08T23:25:48.422Z,4.70
2022-08-08T23:28:18.180Z,4.93
2022-08-08T23:30:46.842Z,5.18
2022-08-08T23:33:21.023Z,4.75
2022-08-08T23:36:08.409Z,4.75
2022-08-08T23:38:36.617Z,4.88
2022-08-08T23:41:17.458Z,5.20
2022-08-08T23:43:53.885Z,4.90
2022-08-08T23:49:07.544Z,4.88
2022-08-08T23:49:18.705Z,4.30
2022-08-08T23:52:05.411Z,4.90
2022-08-08T23:54:43.759Z,4.60
2022-08-08T23:57:27.621Z,4.93
